createdAt,value
2022-09-06T00:00:40.516Z,97.42
2022-09-06T00:03:46.792Z,97.29
2022-09-06T00:06:51.563Z,97.46
2022-09-06T00:09:57.549Z,97.68
2022-09-06T00:13:04.846Z,97.17
2022-09-06T00:16:17.171Z,97.01
2022-09-06T00:19:22.001Z,96.99
2022-09-06T00:22:26.734Z,96.61
2022-09-06T00:25:31.792Z,96.54
2022-09-06T00:28:36.621Z,96.15
2022-09-06T00:31:41.396Z,96.31
2022-09-06T00:34:46.091Z,96.08
2022-09-06T00:37:50.833Z,95.61
2022-09-06T00:40:55.672Z,95.73
2022-09-06T00:44:00.523Z,95.89
2022-09-06T00:47:06.356Z,95.98
2022-09-06T00:50:14.469Z,96.08
2022-09-06T00:53:20.076Z,95.97
2022-09-06T00:56:26.316Z,96.08
2022-09-06T00:59:33.224Z,95.41
2022-09-06T01:02:38.147Z,95.85
2022-09-06T01:05:45.599Z,95.65
2022-09-06T01:08:56.449Z,95.03
2022-09-06T01:12:28.296Z,95.17
2022-09-06T01:16:01.797Z,95.18
2022-09-06T01:19:40.456Z,95.28
2022-09-06T01:23:09.172Z,95.21
2022-09-06T01:26:21.543Z,95.44
2022-09-06T01:29:36.000Z,95.15
2022-09-06T01:32:58.146Z,95.79
2022-09-06T01:36:10.135Z,95.70
2022-09-06T01:39:24.934Z,95.37
2022-09-06T01:42:33.005Z,96.12
2022-09-06T01:46:04.890Z,95.86
2022-09-06T01:49:35.707Z,96.61
2022-09-06T01:52:59.093Z,97.05
2022-09-06T01:56:18.583Z,96.58
2022-09-06T01:59:35.326Z,96.96
2022-09-06T02:02:55.954Z,96.38
2022-09-06T02:06:13.197Z,96.24
2022-09-06T02:09:24.976Z,96.10
2022-09-06T02:12:33.941Z,96.49
2022-09-06T02:15:44.504Z,96.67
2022-09-06T02:19:25.877Z,96.85
2022-09-06T02:22:40.699Z,96.83
2022-09-06T02:25:53.018Z,97.03
2022-09-06T02:28:58.531Z,97.88
2022-09-06T02:32:10.167Z,97.38
2022-09-06T02:35:17.444Z,97.58
2022-09-06T02:38:28.435Z,97.33
2022-09-06T02:41:34.800Z,97.57
2022-09-06T02:44:39.597Z,98.49
2022-09-06T02:47:45.052Z,98.13
2022-09-06T02:50:49.395Z,97.91
2022-09-06T02:53:54.203Z,98.56
2022-09-06T02:56:58.723Z,97.80
2022-09-06T03:00:03.518Z,98.04
2022-09-06T03:03:09.159Z,97.48
2022-09-06T03:06:14.460Z,97.04
2022-09-06T03:09:19.234Z,96.57
2022-09-06T03:12:26.245Z,97.13
2022-09-06T03:15:31.264Z,100.00
2022-09-06T03:18:36.514Z,100.00
2022-09-06T03:21:41.013Z,99.22
2022-09-06T03:24:45.656Z,98.85
2022-09-06T03:27:50.817Z,98.76
2022-09-06T03:30:55.855Z,98.84
2022-09-06T03:34:01.003Z,98.94
2022-09-06T03:37:06.335Z,100.00
2022-09-06T03:40:11.843Z,100.00
2022-09-06T03:43:18.606Z,100.00
2022-09-06T03:46:23.617Z,100.00
2022-09-06T03:49:28.347Z,100.00
2022-09-06T03:52:33.573Z,100.00
2022-09-06T03:55:38.624Z,100.00
2022-09-06T03:58:43.400Z,100.00
2022-09-06T04:01:48.665Z,100.00
2022-09-06T04:04:56.613Z,100.00
2022-09-06T04:08:01.426Z,100.00
2022-09-06T04:11:07.426Z,100.00
2022-09-06T04:14:12.086Z,100.00
2022-09-06T04:17:17.034Z,100.00
2022-09-06T04:20:21.841Z,100.00
2022-09-06T04:23:29.168Z,100.00
2022-09-06T04:26:34.198Z,100.00
2022-09-06T04:29:39.232Z,100.00
2022-09-06T04:32:43.959Z,100.00
2022-09-06T04:35:51.914Z,100.00
2022-09-06T04:38:56.903Z,100.00
2022-09-06T04:42:01.559Z,100.00
2022-09-06T04:45:06.674Z,100.00
2022-09-06T04:48:11.930Z,100.00
2022-09-06T04:51:16.696Z,100.00
2022-09-06T04:54:21.553Z,100.00
2022-09-06T04:57:26.483Z,100.00
2022-09-06T05:00:34.139Z,100.00
2022-09-06T05:03:39.251Z,100.00
2022-09-06T05:06:44.241Z,100.00
2022-09-06T05:09:48.952Z,100.00
2022-09-06T05:12:55.308Z,100.00
2022-09-06T05:16:08.391Z,100.00
2022-09-06T05:19:13.701Z,100.00
2022-09-06T05:22:18.722Z,100.00
2022-09-06T05:25:23.617Z,100.00
2022-09-06T05:28:28.289Z,100.00
2022-09-06T05:31:35.221Z,100.00
2022-09-06T05:34:40.083Z,100.00
2022-09-06T05:37:44.886Z,100.00
2022-09-06T05:40:49.833Z,100.00
2022-09-06T05:43:54.988Z,100.00
2022-09-06T05:46:59.669Z,100.00
2022-09-06T05:50:06.042Z,100.00
2022-09-06T05:53:10.878Z,100.00
2022-09-06T05:56:16.958Z,100.00
2022-09-06T05:59:21.857Z,100.00
2022-09-06T06:02:27.389Z,100.00
2022-09-06T06:05:32.319Z,100.00
2022-09-06T06:08:37.636Z,100.00
2022-09-06T06:11:43.111Z,100.00
2022-09-06T06:14:47.838Z,100.00
2022-09-06T06:17:52.632Z,100.00
2022-09-06T06:21:13.471Z,100.00
2022-09-06T06:24:18.168Z,100.00
2022-09-06T06:27:22.801Z,100.00
2022-09-06T06:30:27.643Z,100.00
2022-09-06T06:33:33.481Z,100.00
2022-09-06T06:36:38.920Z,100.00
2022-09-06T06:39:43.801Z,100.00
2022-09-06T06:42:48.894Z,100.00
2022-09-06T06:45:54.009Z,100.00
2022-09-06T06:48:59.078Z,100.00
2022-09-06T06:52:03.596Z,100.00
2022-09-06T06:55:08.389Z,100.00
2022-09-06T06:58:14.362Z,100.00
2022-09-06T07:01:21.417Z,100.00
2022-09-06T07:04:26.211Z,100.00
2022-09-06T07:07:31.067Z,100.00
2022-09-06T07:10:36.001Z,100.00
2022-09-06T07:13:41.087Z,100.00
2022-09-06T07:16:46.006Z,100.00
2022-09-06T07:26:41.866Z,100.00
2022-09-06T07:29:49.277Z,100.00
2022-09-06T07:32:54.578Z,100.00
2022-09-06T07:36:03.474Z,100.00
2022-09-06T07:39:16.336Z,100.00
2022-09-06T07:42:26.376Z,100.00
2022-09-06T07:45:31.872Z,100.00
2022-09-06T07:48:40.257Z,100.00
2022-09-06T07:51:46.375Z,100.00
2022-09-06T07:54:55.086Z,100.00
2022-09-06T07:58:02.044Z,100.00
2022-09-06T08:01:21.604Z,100.00
2022-09-06T08:04:30.887Z,100.00
2022-09-06T08:07:40.528Z,100.00
2022-09-06T08:10:47.075Z,100.00
2022-09-06T08:14:01.604Z,100.00
2022-09-06T08:17:07.218Z,100.00
2022-09-06T08:20:14.110Z,100.00
2022-09-06T08:23:19.438Z,100.00
2022-09-06T08:26:26.425Z,100.00
2022-09-06T08:29:32.203Z,100.00
2022-09-06T08:32:40.210Z,100.00
2022-09-06T08:35:45.864Z,100.00
2022-09-06T08:38:51.509Z,100.00
2022-09-06T08:42:06.766Z,100.00
2022-09-06T08:45:17.078Z,100.00
2022-09-06T08:48:24.458Z,100.00
2022-09-06T08:51:49.019Z,100.00
2022-09-06T08:54:57.948Z,100.00
2022-09-06T08:58:44.264Z,100.00
2022-09-06T09:02:18.617Z,100.00
2022-09-06T09:05:34.566Z,100.00
2022-09-06T09:08:54.229Z,100.00
2022-09-06T09:12:01.516Z,100.00
2022-09-06T09:15:14.207Z,100.00
2022-09-06T09:18:29.124Z,100.00
2022-09-06T09:21:38.531Z,100.00
2022-09-06T09:24:48.967Z,100.00
2022-09-06T09:27:59.320Z,100.00
2022-09-06T09:31:07.174Z,100.00
2022-09-06T09:34:15.107Z,100.00
2022-09-06T09:37:47.229Z,100.00
2022-09-06T09:41:10.513Z,100.00
2022-09-06T09:44:39.603Z,100.00
2022-09-06T09:47:46.528Z,100.00
2022-09-06T09:50:53.479Z,100.00
2022-09-06T09:54:05.506Z,100.00
2022-09-06T09:57:21.965Z,100.00
2022-09-06T10:00:44.854Z,100.00
2022-09-06T10:07:27.391Z,100.00
2022-09-06T10:10:45.625Z,100.00
2022-09-06T10:13:51.580Z,100.00
2022-09-06T10:17:00.534Z,100.00
2022-09-06T10:20:13.872Z,100.00
2022-09-06T10:27:20.223Z,100.00
2022-09-06T10:30:26.485Z,100.00
2022-09-06T10:34:05.716Z,100.00
2022-09-06T10:37:26.331Z,100.00
2022-09-06T10:40:36.209Z,100.00
2022-09-06T10:44:11.374Z,100.00
2022-09-06T10:47:18.246Z,100.00
2022-09-06T10:50:27.635Z,100.00
2022-09-06T10:53:48.794Z,100.00
2022-09-06T10:57:00.135Z,100.00
2022-09-06T11:00:14.177Z,100.00
2022-09-06T11:07:04.131Z,100.00
2022-09-06T11:10:49.869Z,100.00
2022-09-06T11:15:18.163Z,100.00
2022-09-06T11:24:17.579Z,100.00
2022-09-06T11:29:12.369Z,100.00
2022-09-06T11:32:37.230Z,100.00
2022-09-06T11:36:18.934Z,100.00
2022-09-06T11:43:50.440Z,100.00
2022-09-06T11:47:22.566Z,100.00
2022-09-06T11:51:05.668Z,100.00
2022-09-06T11:54:16.579Z,100.00
2022-09-06T11:57:28.574Z,100.00
2022-09-06T12:06:23.415Z,100.00
2022-09-06T12:30:41.674Z,100.00
2022-09-06T12:33:48.228Z,100.00
2022-09-06T12:37:10.880Z,100.00
2022-09-06T12:40:52.465Z,100.00
2022-09-06T12:44:12.881Z,100.00
2022-09-06T12:47:31.009Z,100.00
2022-09-06T12:50:36.546Z,100.00
2022-09-06T12:56:04.307Z,100.00
2022-09-06T13:05:04.991Z,100.00
2022-09-06T13:08:17.348Z,100.00
2022-09-06T13:12:19.995Z,100.00
2022-09-06T13:16:26.575Z,100.00
2022-09-06T13:19:48.846Z,100.00
2022-09-06T13:23:15.663Z,100.00
2022-09-06T13:27:05.122Z,100.00
2022-09-06T13:30:50.504Z,100.00
2022-09-06T13:34:03.184Z,100.00
2022-09-06T13:37:27.772Z,100.00
2022-09-06T13:41:14.686Z,100.00
2022-09-06T13:44:37.161Z,100.00
2022-09-06T13:48:26.108Z,100.00
2022-09-06T13:51:39.023Z,100.00
2022-09-06T13:54:46.615Z,100.00
2022-09-06T13:57:51.974Z,100.00
2022-09-06T14:00:57.508Z,100.00
2022-09-06T14:04:06.065Z,100.00
2022-09-06T14:07:14.639Z,100.00
2022-09-06T14:10:27.041Z,100.00
2022-09-06T14:13:34.388Z,100.00
2022-09-06T14:16:39.830Z,100.00
2022-09-06T14:19:44.997Z,100.00
2022-09-06T14:22:52.471Z,100.00
2022-09-06T14:25:58.794Z,100.00
2022-09-06T14:29:03.921Z,100.00
2022-09-06T14:32:08.734Z,100.00
2022-09-06T14:35:13.841Z,100.00
2022-09-06T14:38:18.893Z,100.00
2022-09-06T14:41:23.684Z,100.00
2022-09-06T14:44:28.507Z,100.00
2022-09-06T14:47:34.197Z,100.00
2022-09-06T14:50:39.142Z,100.00
2022-09-06T14:53:46.818Z,100.00
2022-09-06T14:56:51.868Z,100.00
2022-09-06T14:59:57.063Z,100.00
2022-09-06T15:03:02.030Z,100.00
2022-09-06T15:06:10.050Z,100.00
2022-09-06T15:09:18.694Z,100.00
2022-09-06T15:16:50.841Z,100.00
2022-09-06T15:19:59.370Z,100.00
2022-09-06T15:23:34.917Z,100.00
2022-09-06T15:26:32.664Z,100.00
2022-09-06T15:29:37.754Z,100.00
2022-09-06T15:34:03.987Z,100.00
2022-09-06T15:36:42.829Z,100.00
2022-09-06T15:39:48.362Z,100.00
2022-09-06T15:43:31.737Z,100.00
2022-09-06T15:46:51.749Z,100.00
2022-09-06T15:49:59.498Z,100.00
2022-09-06T15:53:18.182Z,100.00
2022-09-06T15:56:23.359Z,100.00
2022-09-06T15:59:28.749Z,100.00
2022-09-06T16:03:05.462Z,100.00
2022-09-06T16:06:57.974Z,99.06
2022-09-06T16:14:18.600Z,98.16
2022-09-06T16:18:28.394Z,96.28
2022-09-06T16:22:24.194Z,96.81
2022-09-06T16:26:21.545Z,98.98
2022-09-06T16:35:04.239Z,98.55
2022-09-06T16:39:06.610Z,98.26
2022-09-06T16:52:28.481Z,90.71
2022-09-06T17:00:14.665Z,94.59
2022-09-06T17:04:06.845Z,87.48
2022-09-06T17:07:25.847Z,92.29
2022-09-06T17:10:40.668Z,92.02
2022-09-06T17:13:55.572Z,91.76
2022-09-06T17:20:35.920Z,88.47
2022-09-06T17:23:47.907Z,88.50
2022-09-06T17:27:15.297Z,88.79
2022-09-06T17:30:30.475Z,88.03
2022-09-06T17:33:52.019Z,86.85
2022-09-06T17:40:24.960Z,87.25
2022-09-06T17:43:37.800Z,87.33
2022-09-06T17:47:13.948Z,86.58
2022-09-06T17:50:49.694Z,85.83
2022-09-06T17:54:11.187Z,86.36
2022-09-06T17:57:30.800Z,85.12
2022-09-06T18:00:39.153Z,86.09
2022-09-06T18:03:48.036Z,85.53
2022-09-06T18:18:30.263Z,87.63
2022-09-06T18:21:38.111Z,87.67
2022-09-06T18:25:02.847Z,86.20
2022-09-06T18:28:37.176Z,86.27
2022-09-06T18:31:58.344Z,85.25
2022-09-06T18:35:11.789Z,83.86
2022-09-06T18:38:16.888Z,84.67
2022-09-06T18:41:43.391Z,84.87
2022-09-06T18:44:58.064Z,85.06
2022-09-06T18:48:15.054Z,84.64
2022-09-06T18:52:58.142Z,84.42
2022-09-06T18:56:05.849Z,83.99
2022-09-06T18:59:37.462Z,83.98
2022-09-06T19:03:22.880Z,84.41
2022-09-06T19:07:06.997Z,84.27
2022-09-06T19:10:38.188Z,84.15
2022-09-06T19:14:40.787Z,82.96
2022-09-06T19:19:55.252Z,83.69
2022-09-06T19:22:57.133Z,84.25
2022-09-06T19:31:19.772Z,83.46
2022-09-06T19:35:12.712Z,83.14
2022-09-06T19:39:49.276Z,83.46
2022-09-06T19:43:38.698Z,82.42
2022-09-06T19:47:16.464Z,83.68
2022-09-06T19:50:21.396Z,83.70
2022-09-06T19:53:26.522Z,83.76
2022-09-06T19:56:43.785Z,84.13
2022-09-06T20:00:00.519Z,83.28
2022-09-06T20:03:08.447Z,81.37
2022-09-06T20:06:15.014Z,82.01
2022-09-06T20:09:22.463Z,81.81
2022-09-06T20:12:35.600Z,81.18
2022-09-06T20:16:01.792Z,81.50
2022-09-06T20:19:34.245Z,79.97
2022-09-06T20:23:07.039Z,80.04
2022-09-06T20:27:14.204Z,80.62
2022-09-06T20:35:56.204Z,79.28
2022-09-06T20:38:30.908Z,78.74
2022-09-06T20:41:42.045Z,78.72
2022-09-06T20:44:48.197Z,77.66
2022-09-06T20:48:29.577Z,77.53
2022-09-06T20:51:42.978Z,77.75
2022-09-06T20:54:49.906Z,76.85
2022-09-06T20:58:49.079Z,76.98
2022-09-06T21:11:50.959Z,75.67
2022-09-06T21:16:45.356Z,74.77
2022-09-06T21:20:14.241Z,75.50
2022-09-06T21:23:27.713Z,77.63
2022-09-06T21:26:32.804Z,75.69
2022-09-06T21:29:37.871Z,74.64
2022-09-06T21:32:43.489Z,75.01
2022-09-06T21:35:48.124Z,75.51
2022-09-06T21:38:57.608Z,75.55
2022-09-06T21:42:04.538Z,75.74
2022-09-06T21:45:10.027Z,74.42
2022-09-06T21:48:19.228Z,75.81
2022-09-06T21:51:29.162Z,75.03
2022-09-06T21:54:34.838Z,74.77
2022-09-06T21:57:39.481Z,75.05
2022-09-06T22:00:48.799Z,74.00
2022-09-06T22:03:56.972Z,73.99
2022-09-06T22:07:01.805Z,75.04
2022-09-06T22:10:07.245Z,73.85
2022-09-06T22:13:12.271Z,75.33
2022-09-06T22:16:19.277Z,75.52
2022-09-06T22:19:23.981Z,74.74
2022-09-06T22:22:29.325Z,74.48
2022-09-06T22:25:34.835Z,76.06
2022-09-06T22:28:41.389Z,75.34
2022-09-06T22:31:47.180Z,74.78
2022-09-06T22:34:52.572Z,75.29
2022-09-06T22:37:57.809Z,75.94
2022-09-06T22:41:03.470Z,77.67
2022-09-06T22:44:08.691Z,79.20
2022-09-06T22:47:13.436Z,80.84
2022-09-06T22:50:18.838Z,81.29
2022-09-06T22:53:23.990Z,81.11
2022-09-06T22:56:29.890Z,82.26
2022-09-06T22:59:38.648Z,83.73
2022-09-06T23:02:43.794Z,82.13
2022-09-06T23:05:48.668Z,81.75
2022-09-06T23:08:53.642Z,83.71
2022-09-06T23:11:58.219Z,84.61
2022-09-06T23:15:03.298Z,85.93
2022-09-06T23:18:08.406Z,84.01
2022-09-06T23:21:15.709Z,86.70
2022-09-06T23:24:20.664Z,86.31
2022-09-06T23:27:25.554Z,86.63
2022-09-06T23:30:30.403Z,87.31
2022-09-06T23:33:38.187Z,87.87
2022-09-06T23:36:43.146Z,87.60
2022-09-06T23:39:48.138Z,87.87
2022-09-06T23:42:52.957Z,88.93
2022-09-06T23:45:57.861Z,88.50
2022-09-06T23:49:02.461Z,87.59
2022-09-06T23:52:07.777Z,85.47
2022-09-06T23:55:12.673Z,87.13
2022-09-06T23:58:17.652Z,87.65
